Time,TemperatureF,DewpointF,PressureIn,WindDirection,WindDirectionDegrees,WindSpeedMPH,WindSpeedGustMPH,Humidity,HourlyPrecipIn,Conditions,Clouds,dailyrainin,SoftwareType,DateUTC
2013-01-25 00:02:00,15.0,9.0,-100.00,SE,144,8.0,10.0,76,0.00,,,0.00,,2013-01-25 06:02:00,
2013-01-25 00:11:00,15.0,9.0,-100.00,SE,144,8.0,10.0,76,0.00,,,0.00,,2013-01-25 06:11:00,
2013-01-25 00:21:00,15.0,9.0,-100.00,SE,144,8.0,10.0,76,0.00,,,0.00,,2013-01-25 06:21:00,
2013-01-25 00:52:00,17.0,5.0,-100.00,SSE,164,8.0,13.0,59,0.00,,,0.00,,2013-01-25 06:52:00,
2013-01-25 01:02:00,17.0,5.0,-100.00,SSE,164,8.0,13.0,59,0.00,,,0.00,,2013-01-25 07:02:00,
2013-01-25 01:11:00,17.0,5.0,-100.00,SSE,164,8.0,13.0,59,0.00,,,0.00,,2013-01-25 07:11:00,
2013-01-25 01:21:00,17.0,5.0,-100.00,SSE,164,8.0,13.0,59,0.00,,,0.00,,2013-01-25 07:21:00,
2013-01-25 01:52:00,17.0,4.0,-100.00,South,172,9.0,12.0,57,0.00,,,0.00,,2013-01-25 07:52:00,
2013-01-25 02:02:00,17.0,4.0,-100.00,South,172,9.0,12.0,57,0.00,,,0.00,,2013-01-25 08:02:00,
2013-01-25 02:11:00,17.0,4.0,-100.00,South,172,9.0,12.0,57,0.00,,,0.00,,2013-01-25 08:11:00,
2013-01-25 02:21:00,17.0,4.0,-100.00,South,172,9.0,12.0,57,0.00,,,0.00,,2013-01-25 08:21:00,
2013-01-25 02:52:00,18.0,3.0,-100.00,South,169,10.0,14.0,51,0.00,,,0.00,,2013-01-25 08:52:00,
2013-01-25 03:02:00,18.0,3.0,-100.00,South,169,10.0,14.0,51,0.00,,,0.00,,2013-01-25 09:02:00,
2013-01-25 03:11:00,18.0,3.0,-100.00,South,169,10.0,14.0,51,0.00,,,0.00,,2013-01-25 09:11:00,
2013-01-25 03:21:00,18.0,3.0,-100.00,South,169,10.0,14.0,51,0.00,,,0.00,,2013-01-25 09:21:00,
2013-01-25 03:52:00,17.0,3.0,-100.00,South,177,12.0,17.0,53,0.00,,,0.00,,2013-01-25 09:52:00,
2013-01-25 04:02:00,17.0,3.0,-100.00,South,177,12.0,17.0,53,0.00,,,0.00,,2013-01-25 10:02:00,
2013-01-25 04:12:00,17.0,3.0,-100.00,South,177,12.0,17.0,53,0.00,,,0.00,,2013-01-25 10:12:00,
2013-01-25 04:21:00,17.0,3.0,-100.00,South,177,12.0,17.0,53,0.00,,,0.00,,2013-01-25 10:21:00,
2013-01-25 04:52:00,16.0,9.0,-100.00,South,170,10.0,16.0,72,0.00,,,0.00,,2013-01-25 10:52:00,
2013-01-25 05:02:00,16.0,9.0,-100.00,South,170,10.0,16.0,72,0.00,,,0.00,,2013-01-25 11:02:00,
2013-01-25 05:11:00,16.0,9.0,-100.00,South,170,10.0,16.0,72,0.00,,,0.00,,2013-01-25 11:11:00,
2013-01-25 05:22:00,16.0,9.0,-100.00,South,170,10.0,16.0,72,0.00,,,0.00,,2013-01-25 11:22:00,
2013-01-25 05:52:00,15.0,12.0,-100.00,South,179,9.0,15.0,86,0.00,,,0.00,,2013-01-25 11:52:00,
2013-01-25 06:02:00,15.0,12.0,-100.00,South,179,9.0,15.0,86,0.00,,,0.00,,2013-01-25 12:02:00,
2013-01-25 06:11:00,15.0,12.0,-100.00,South,179,9.0,15.0,86,0.00,,,0.00,,2013-01-25 12:11:00,
2013-01-25 06:22:00,15.0,12.0,-100.00,South,179,9.0,15.0,86,0.00,,,0.00,,2013-01-25 12:22:00,
2013-01-25 06:53:00,15.0,12.0,-100.00,South,175,11.0,14.0,86,0.00,,,0.00,,2013-01-25 12:53:00,
2013-01-25 07:02:00,15.0,12.0,-100.00,South,175,11.0,14.0,86,0.00,,,0.00,,2013-01-25 13:02:00,
2013-01-25 07:11:00,15.0,12.0,-100.00,South,175,11.0,14.0,86,0.00,,,0.00,,2013-01-25 13:11:00,
2013-01-25 07:22:00,15.0,12.0,-100.00,South,175,11.0,14.0,86,0.00,,,0.00,,2013-01-25 13:22:00,
2013-01-25 07:53:00,16.0,12.0,-100.00,South,183,10.0,15.0,84,0.00,,,0.00,,2013-01-25 13:53:00,
2013-01-25 08:03:00,16.0,12.0,-100.00,South,183,10.0,15.0,84,0.00,,,0.00,,2013-01-25 14:03:00,
2013-01-25 08:12:00,16.0,12.0,-100.00,South,183,10.0,15.0,84,0.00,,,0.00,,2013-01-25 14:12:00,
2013-01-25 08:23:00,16.0,12.0,-100.00,South,183,10.0,15.0,84,0.00,,,0.00,,2013-01-25 14:23:00,
2013-01-25 08:53:00,16.0,12.0,-100.00,SSW,195,11.0,17.0,84,0.00,,,0.00,,2013-01-25 14:53:00,
2013-01-25 09:02:00,16.0,12.0,-100.00,SSW,195,11.0,17.0,84,0.00,,,0.00,,2013-01-25 15:02:00,
2013-01-25 09:12:00,16.0,12.0,-100.00,SSW,195,11.0,17.0,84,0.00,,,0.00,,2013-01-25 15:12:00,
2013-01-25 09:22:00,16.0,12.0,-100.00,SSW,195,11.0,17.0,84,0.00,,,0.00,,2013-01-25 15:22:00,
2013-01-25 09:53:00,18.0,13.0,-100.00,SSW,208,10.0,17.0,82,0.00,,,-99.99,,2013-01-25 15:53:00,
2013-01-25 10:03:00,18.0,13.0,-100.00,SSW,208,10.0,17.0,82,0.00,,,-99.99,,2013-01-25 16:03:00,
2013-01-25 10:12:00,18.0,13.0,-100.00,SSW,208,10.0,17.0,82,0.00,,,-99.99,,2013-01-25 16:12:00,
2013-01-25 10:22:00,18.0,13.0,-100.00,SSW,208,10.0,17.0,82,0.00,,,-99.99,,2013-01-25 16:22:00,
2013-01-25 10:53:00,19.0,14.0,-100.00,SW,216,10.0,17.0,79,0.00,,,0.00,,2013-01-25 16:53:00,
2013-01-25 11:02:00,19.0,14.0,-100.00,SW,216,10.0,17.0,79,0.00,,,0.00,,2013-01-25 17:02:00,
2013-01-25 11:12:00,19.0,14.0,-100.00,SW,216,10.0,17.0,79,0.00,,,0.00,,2013-01-25 17:12:00,
2013-01-25 11:22:00,19.0,14.0,-100.00,SW,216,10.0,17.0,79,0.00,,,0.00,,2013-01-25 17:22:00,
2013-01-25 11:53:00,20.0,14.0,-100.00,SW,227,11.0,18.0,77,0.00,,,0.00,,2013-01-25 17:53:00,
2013-01-25 12:03:00,20.0,14.0,-100.00,SW,227,11.0,18.0,77,0.00,,,0.00,,2013-01-25 18:03:00,
2013-01-25 12:12:00,20.0,14.0,-100.00,SW,227,11.0,18.0,77,0.00,,,0.00,,2013-01-25 18:12:00,
2013-01-25 12:23:00,20.0,14.0,-100.00,SW,227,11.0,18.0,77,0.00,,,0.00,,2013-01-25 18:23:00,
2013-01-25 12:52:00,21.0,14.0,-100.00,WSW,238,11.0,16.0,74,0.00,,,0.00,,2013-01-25 18:52:00,
2013-01-25 13:03:00,21.0,14.0,-100.00,WSW,238,11.0,16.0,74,0.00,,,0.00,,2013-01-25 19:03:00,
2013-01-25 13:12:00,21.0,14.0,-100.00,WSW,238,11.0,16.0,74,0.00,,,0.00,,2013-01-25 19:12:00,
2013-01-25 13:22:00,21.0,14.0,-100.00,WSW,238,11.0,16.0,74,0.00,,,0.00,,2013-01-25 19:22:00,
2013-01-25 13:53:00,22.0,13.0,-100.00,SW,234,11.0,17.0,69,0.00,,,0.00,,2013-01-25 19:53:00,
2013-01-25 14:03:00,22.0,13.0,-100.00,SW,234,11.0,17.0,69,0.00,,,0.00,,2013-01-25 20:03:00,
2013-01-25 14:12:00,22.0,13.0,-100.00,SW,234,11.0,17.0,69,0.00,,,0.00,,2013-01-25 20:12:00,
2013-01-25 14:22:00,22.0,13.0,-100.00,SW,234,11.0,17.0,69,0.00,,,0.00,,2013-01-25 20:22:00,
2013-01-25 14:53:00,22.0,15.0,-100.00,WSW,247,10.0,15.0,75,0.00,,,0.00,,2013-01-25 20:53:00,
2013-01-25 15:02:00,22.0,15.0,-100.00,WSW,247,10.0,15.0,75,0.00,,,0.00,,2013-01-25 21:02:00,
2013-01-25 15:12:00,22.0,15.0,-100.00,WSW,247,10.0,15.0,75,0.00,,,0.00,,2013-01-25 21:12:00,
2013-01-25 15:23:00,22.0,15.0,-100.00,WSW,247,10.0,15.0,75,0.00,,,0.00,,2013-01-25 21:23:00,
2013-01-25 15:52:00,22.0,16.0,-100.00,WNW,285,10.0,17.0,76,0.00,,,0.00,,2013-01-25 21:52:00,
2013-01-25 16:03:00,22.0,16.0,-100.00,WNW,285,10.0,17.0,76,0.00,,,0.00,,2013-01-25 22:03:00,
2013-01-25 16:12:00,22.0,16.0,-100.00,WNW,285,10.0,17.0,76,0.00,,,0.00,,2013-01-25 22:12:00,
2013-01-25 16:22:00,22.0,16.0,-100.00,WNW,285,10.0,17.0,76,0.00,,,0.00,,2013-01-25 22:22:00,
2013-01-25 16:53:00,21.0,13.0,-100.00,NW,308,13.0,20.0,72,0.00,,,0.00,,2013-01-25 22:53:00,
2013-01-25 17:02:00,21.0,13.0,-100.00,NW,308,13.0,20.0,72,0.00,,,0.00,,2013-01-25 23:02:00,
2013-01-25 17:12:00,21.0,13.0,-100.00,NW,308,13.0,20.0,72,0.00,,,0.00,,2013-01-25 23:12:00,
2013-01-25 17:22:00,21.0,13.0,-100.00,NW,308,13.0,20.0,72,0.00,,,0.00,,2013-01-25 23:22:00,
2013-01-25 17:53:00,20.0,12.0,-100.00,NW,321,10.0,18.0,70,0.00,,,0.00,,2013-01-25 23:53:00,
2013-01-25 18:02:00,20.0,12.0,-100.00,NW,321,10.0,18.0,70,0.00,,,0.00,,2013-01-26 00:02:00,
2013-01-25 18:11:00,20.0,12.0,-100.00,NW,321,10.0,18.0,70,0.00,,,0.00,,2013-01-26 00:11:00,
2013-01-25 18:22:00,20.0,12.0,-100.00,NW,321,10.0,18.0,70,0.00,,,0.00,,2013-01-26 00:22:00,
2013-01-25 18:53:00,19.0,13.0,-100.00,NW,321,7.0,15.0,78,0.00,,,0.00,,2013-01-26 00:53:00,
2013-01-25 19:02:00,19.0,13.0,-100.00,NW,321,7.0,15.0,78,0.00,,,0.00,,2013-01-26 01:02:00,
2013-01-25 19:11:00,19.0,13.0,-100.00,NW,321,7.0,15.0,78,0.00,,,0.00,,2013-01-26 01:11:00,
2013-01-25 19:22:00,19.0,13.0,-100.00,NW,321,7.0,15.0,78,0.00,,,0.00,,2013-01-26 01:22:00,
2013-01-25 19:52:00,19.0,13.0,-100.00,NW,324,7.0,13.0,76,0.00,,,0.00,,2013-01-26 01:52:00,
2013-01-25 20:01:00,19.0,13.0,-100.00,NW,324,7.0,13.0,76,0.00,,,0.00,,2013-01-26 02:01:00,
2013-01-25 20:11:00,19.0,13.0,-100.00,NW,324,7.0,13.0,76,0.00,,,0.00,,2013-01-26 02:11:00,
2013-01-25 20:22:00,19.0,13.0,-100.00,NW,324,7.0,13.0,76,0.00,,,0.00,,2013-01-26 02:22:00,
2013-01-25 20:52:00,18.0,11.0,-100.00,NW,324,7.0,14.0,72,0.00,,,0.00,,2013-01-26 02:52:00,
2013-01-25 21:02:00,18.0,11.0,-100.00,NW,324,7.0,14.0,72,0.00,,,0.00,,2013-01-26 03:02:00,
2013-01-25 21:11:00,18.0,11.0,-100.00,NW,324,7.0,14.0,72,0.00,,,0.00,,2013-01-26 03:11:00,
2013-01-25 21:22:00,18.0,11.0,-100.00,NW,324,7.0,14.0,72,0.00,,,0.00,,2013-01-26 03:22:00,
2013-01-25 21:52:00,16.0,9.0,-100.00,NW,324,9.0,15.0,72,0.00,,,0.00,,2013-01-26 03:52:00,
2013-01-25 22:02:00,16.0,9.0,-100.00,NW,324,9.0,15.0,72,0.00,,,0.00,,2013-01-26 04:02:00,
2013-01-25 22:12:00,16.0,9.0,-100.00,NW,324,9.0,15.0,72,0.00,,,0.00,,2013-01-26 04:12:00,
2013-01-25 22:21:00,16.0,9.0,-100.00,NW,324,9.0,15.0,72,0.00,,,0.00,,2013-01-26 04:21:00,
2013-01-25 22:52:00,14.0,8.0,-100.00,NW,315,7.0,13.0,78,0.00,,,0.00,,2013-01-26 04:52:00,
2013-01-25 23:03:00,14.0,8.0,-100.00,NW,315,7.0,13.0,78,0.00,,,0.00,,2013-01-26 05:03:00,
2013-01-25 23:12:00,14.0,8.0,-100.00,NW,315,7.0,13.0,78,0.00,,,0.00,,2013-01-26 05:12:00,
2013-01-25 23:23:00,14.0,8.0,-100.00,NW,315,7.0,13.0,78,0.00,,,0.00,,2013-01-26 05:23:00,
2013-01-25 23:52:00,13.0,8.0,-100.00,NW,314,6.0,11.0,80,0.00,,,0.00,,2013-01-26 05:52:00,